Time;durP1;ratioP1;P1;durP2;ratioP2;P2;SDS_P1;SDS_P2;PMS_P1;PMS_P2;Temp;Humidity;BMP_temperature;BMP_pressure;BME280_temperature;BME280_humidity;BME280_pressure;Samples;Min_cycle;Max_cycle;Signal;HPM_P1;HPM_P2
2022/11/10 00:03:15;;;;;;;19.90;9.80;;;;;;;8.79;100.00;99508.59;105930;1296;58910;-75
2022/11/10 00:06:21;;;;;;;21.50;10.70;;;;;;;8.80;100.00;99512.21;105887;1298;71158;-75
2022/11/10 00:09:28;;;;;;;20.80;10.10;;;;;;;8.82;100.00;99516.66;105921;1292;69148;-76
2022/11/10 00:12:34;;;;;;;19.60;10.20;;;;;;;8.83;100.00;99513.54;105901;1292;72651;-75
2022/11/10 00:19:10;;;;;;;20.30;9.80;;;;;;;8.85;100.00;99503.64;105884;1292;61422;-76
2022/11/10 00:22:17;;;;;;;20.60;9.10;;;;;;;8.86;100.00;99503.62;105916;1292;74029;-76
2022/11/10 00:25:25;;;;;;;21.10;10.20;;;;;;;8.86;100.00;99503.24;105905;1288;67851;-75
2022/11/10 00:28:31;;;;;;;18.80;8.70;;;;;;;8.86;100.00;99502.88;105918;1298;73503;-75
2022/11/10 00:31:38;;;;;;;18.90;10.00;;;;;;;8.87;100.00;99506.88;105909;1298;60697;-75
2022/11/10 00:34:45;;;;;;;17.80;8.60;;;;;;;8.88;100.00;99498.86;105952;1298;60342;-77
2022/11/10 00:37:51;;;;;;;16.90;8.10;;;;;;;8.88;100.00;99500.06;105758;1293;71841;-75
2022/11/10 00:41:01;;;;;;;20.00;9.70;;;;;;;8.87;99.95;99492.92;105799;1292;67736;-73
2022/11/10 00:44:07;;;;;;;18.80;8.90;;;;;;;8.86;99.89;99500.98;105906;1298;73562;-74
2022/11/10 00:47:13;;;;;;;17.30;8.90;;;;;;;8.83;99.79;99507.91;105917;1290;60598;-74
2022/11/10 00:50:20;;;;;;;19.40;10.00;;;;;;;8.80;99.86;99504.98;105906;1298;60088;-74
2022/11/10 00:53:26;;;;;;;17.90;9.50;;;;;;;8.77;99.96;99506.23;105927;1288;73133;-74
2022/11/10 00:56:32;;;;;;;19.20;9.70;;;;;;;8.74;99.95;99511.85;105903;1292;67988;-73
2022/11/10 00:59:38;;;;;;;17.10;9.10;;;;;;;8.73;99.97;99505.05;105921;1296;71077;-74
2022/11/10 01:02:47;;;;;;;18.80;9.10;;;;;;;8.71;100.00;99511.55;105154;1290;1002295;-74
2022/11/10 01:05:54;;;;;;;16.10;8.00;;;;;;;8.71;100.00;99512.09;105916;1292;60367;-75
2022/11/10 01:09:00;;;;;;;17.10;8.60;;;;;;;8.70;99.98;99511.22;105937;1285;73176;-75
2022/11/10 01:12:06;;;;;;;19.20;9.40;;;;;;;8.70;100.00;99510.02;105919;1290;66850;-74
2022/11/10 01:15:13;;;;;;;18.00;9.20;;;;;;;8.69;100.00;99513.23;105911;1290;74156;-73
2022/11/10 01:18:19;;;;;;;17.90;8.50;;;;;;;8.70;99.90;99517.76;105914;1298;59110;-73
2022/11/10 01:21:28;;;;;;;19.80;9.70;;;;;;;8.72;99.87;99517.34;105927;1290;60293;-73
2022/11/10 01:24:34;;;;;;;17.50;8.70;;;;;;;8.72;99.83;99512.86;105938;1292;73023;-73
2022/11/10 01:27:40;;;;;;;14.50;7.50;;;;;;;8.72;99.80;99514.63;105942;1292;68039;-73
2022/11/10 01:30:47;;;;;;;17.80;9.00;;;;;;;8.72;99.87;99512.84;105899;1292;72786;-73
2022/11/10 01:33:54;;;;;;;17.00;7.40;;;;;;;8.72;99.86;99517.98;105899;1290;59931;-73
2022/11/10 01:37:01;;;;;;;14.60;7.80;;;;;;;8.73;99.85;99523.59;105922;1292;60655;-73
2022/11/10 01:40:09;;;;;;;15.30;7.80;;;;;;;8.73;99.87;99516.86;105903;1290;72927;-74
2022/11/10 01:43:15;;;;;;;16.60;7.90;;;;;;;8.75;99.68;99520.60;105909;1292;69059;-72
2022/11/10 01:46:22;;;;;;;18.00;8.10;;;;;;;8.76;99.79;99519.30;105925;1288;72550;-74
2022/11/10 01:49:31;;;;;;;18.50;8.00;;;;;;;8.76;99.52;99519.98;105894;1285;60125;-73
2022/11/10 01:52:39;;;;;;;14.20;7.50;;;;;;;8.77;99.66;99524.85;105918;1292;61567;-73
2022/11/10 01:55:47;;;;;;;13.40;7.10;;;;;;;8.79;99.38;99531.26;105932;1291;71730;-74
2022/11/10 01:59:00;;;;;;;16.70;7.80;;;;;;;8.79;99.46;99530.50;105915;1291;67861;-77
2022/11/10 02:02:30;;;;;;;18.60;8.30;;;;;;;8.79;99.27;99531.77;105786;1291;72984;-73
2022/11/10 02:05:36;;;;;;;14.00;6.90;;;;;;;8.78;99.32;99533.05;105814;1300;58894;-74
2022/11/10 02:08:44;;;;;;;18.30;7.90;;;;;;;8.78;99.08;99536.08;105882;1292;61274;-74
2022/11/10 02:11:54;;;;;;;18.50;7.40;;;;;;;8.77;99.13;99530.69;105866;1292;73538;-74
2022/11/10 02:15:00;;;;;;;15.50;6.40;;;;;;;8.77;99.14;99542.89;105873;1292;69042;-74
2022/11/10 02:18:07;;;;;;;13.60;7.70;;;;;;;8.76;99.12;99541.73;105933;1291;72839;-73
2022/11/10 02:21:19;;;;;;;16.10;7.20;;;;;;;8.76;99.08;99538.38;105925;1299;58300;-75
2022/11/10 02:24:26;;;;;;;13.20;6.80;;;;;;;8.76;99.13;99541.02;105942;1291;59409;-73
2022/11/10 02:27:32;;;;;;;17.40;8.00;;;;;;;8.74;99.03;99537.27;105901;1290;74528;-74
2022/11/10 02:30:39;;;;;;;15.00;7.20;;;;;;;8.73;99.33;99540.90;105951;1288;68938;-75
2022/11/10 02:33:46;;;;;;;15.00;7.00;;;;;;;8.73;99.22;99543.05;105901;1290;73006;-74
2022/11/10 02:36:52;;;;;;;15.60;7.50;;;;;;;8.73;99.31;99544.48;105908;1284;58147;-73
2022/11/10 02:39:59;;;;;;;15.70;6.50;;;;;;;8.73;99.31;99544.05;105920;1298;60754;-74
2022/11/10 02:43:11;;;;;;;15.70;7.30;;;;;;;8.72;99.29;99545.20;105924;1292;73865;-73
2022/11/10 02:46:18;;;;;;;15.30;6.70;;;;;;;8.73;99.30;99543.39;105826;1290;66695;-74
2022/11/10 02:49:24;;;;;;;13.90;6.00;;;;;;;8.72;99.30;99541.84;105898;1290;71016;-74
2022/11/10 02:52:33;;;;;;;14.20;7.20;;;;;;;8.72;99.25;99545.23;105902;1298;60643;-74
2022/11/10 02:55:40;;;;;;;14.40;7.00;;;;;;;8.71;99.35;99548.52;105906;1292;59506;-74
2022/11/10 02:58:47;;;;;;;14.30;6.80;;;;;;;8.71;99.39;99551.52;105920;1291;74028;-74
2022/11/10 03:01:54;;;;;;;12.80;6.30;;;;;;;8.70;99.65;99558.09;105925;1291;69094;-74
2022/11/10 03:05:01;;;;;;;15.30;7.50;;;;;;;8.70;99.63;99557.58;105918;1291;73599;-73
2022/11/10 03:08:07;;;;;;;13.10;6.40;;;;;;;8.70;99.30;99560.03;105925;1291;59501;-73
2022/11/10 03:11:14;;;;;;;14.80;7.10;;;;;;;8.69;99.43;99560.80;105916;1290;59055;-74
2022/11/10 03:14:20;;;;;;;14.50;6.80;;;;;;;8.67;99.15;99558.48;105929;1292;73296;-74
2022/11/10 03:17:27;;;;;;;14.30;6.50;;;;;;;8.66;99.30;99560.01;105932;1296;66520;-75
2022/11/10 03:20:33;;;;;;;14.60;6.80;;;;;;;8.64;98.90;99560.50;105899;1297;71339;-77
2022/11/10 03:23:40;;;;;;;15.00;8.00;;;;;;;8.62;99.31;99562.83;105906;1291;59247;-78
2022/11/10 03:26:47;;;;;;;15.30;7.30;;;;;;;8.59;99.21;99569.23;105917;1285;61150;-76
2022/11/10 03:29:54;;;;;;;16.10;7.60;;;;;;;8.55;99.49;99572.88;105899;1291;73137;-78
2022/11/10 03:33:00;;;;;;;15.40;7.70;;;;;;;8.54;99.43;99576.35;105905;1291;68635;-75
2022/11/10 03:36:07;;;;;;;15.70;7.20;;;;;;;8.51;99.48;99577.95;105918;1290;72972;-76
2022/11/10 03:39:14;;;;;;;16.60;7.60;;;;;;;8.48;99.80;99577.68;105898;1290;60094;-79
2022/11/10 03:42:20;;;;;;;15.40;7.00;;;;;;;8.46;99.89;99583.13;105931;1284;59185;-77
2022/11/10 03:45:27;;;;;;;14.00;7.30;;;;;;;8.45;99.81;99581.42;105951;1290;72949;-76
2022/11/10 03:48:34;;;;;;;14.50;7.20;;;;;;;8.43;99.85;99589.82;105888;1284;67580;-75
2022/11/10 03:51:41;;;;;;;15.40;7.90;;;;;;;8.42;99.75;99593.07;105887;1292;73891;-75
2022/11/10 03:54:48;;;;;;;14.90;8.20;;;;;;;8.41;99.84;99588.05;105925;1286;58236;-77
2022/11/10 03:57:54;;;;;;;14.70;7.50;;;;;;;8.40;99.94;99595.55;105125;1293;1002465;-74
2022/11/10 04:01:01;;;;;;;16.00;7.50;;;;;;;8.38;99.95;99597.63;105940;1290;71771;-75
2022/11/10 04:08:57;;;;;;;15.90;6.90;;;;;;;8.38;99.98;99598.89;105923;1292;67637;-76
2022/11/10 04:11:02;;;;;;;15.60;7.80;;;;;;;8.36;100.00;99601.17;105909;1291;60573;-77
2022/11/10 04:17:33;;;;;;;15.60;8.40;;;;;;;8.35;100.00;99609.37;105927;1291;73113;-76
2022/11/10 04:20:39;;;;;;;15.30;7.90;;;;;;;8.33;100.00;99612.65;105817;1294;67936;-79
2022/11/10 04:23:46;;;;;;;14.20;7.70;;;;;;;8.33;100.00;99614.26;105797;1285;72727;-74
2022/11/10 04:26:52;;;;;;;15.80;8.00;;;;;;;8.32;100.00;99613.80;105900;1291;58288;-75
2022/11/10 04:29:58;;;;;;;16.10;7.50;;;;;;;8.32;100.00;99617.00;105935;1292;60414;-76
2022/11/10 04:33:05;;;;;;;15.80;7.40;;;;;;;8.32;100.00;99620.92;105905;1293;71436;-75
2022/11/10 04:36:15;;;;;;;14.40;7.80;;;;;;;8.32;100.00;99625.33;105920;1284;68215;-75
2022/11/10 04:39:22;;;;;;;14.80;7.10;;;;;;;8.33;100.00;99625.63;105883;1292;74131;-74
2022/11/10 04:42:29;;;;;;;15.80;7.40;;;;;;;8.33;100.00;99629.34;105902;1292;59518;-74
2022/11/10 04:45:35;;;;;;;14.20;7.40;;;;;;;8.33;100.00;99628.42;105934;1291;60839;-75
2022/11/10 04:48:42;;;;;;;14.90;7.20;;;;;;;8.34;99.99;99629.58;105883;1291;73096;-76
2022/11/10 04:51:48;;;;;;;13.80;7.00;;;;;;;8.35;100.00;99632.48;105886;1290;66353;-75
2022/11/10 04:54:55;;;;;;;15.60;7.30;;;;;;;8.36;100.00;99629.45;105900;1291;71253;-76
2022/11/10 04:58:02;;;;;;;13.40;6.90;;;;;;;8.36;99.98;99630.86;105867;1291;58384;-76
2022/11/10 05:01:15;;;;;;;13.70;6.20;;;;;;;8.35;100.00;99633.54;105912;1291;60391;-75
2022/11/10 05:04:22;;;;;;;14.20;6.80;;;;;;;8.34;99.96;99629.41;105874;1284;73872;-76
2022/11/10 05:07:28;;;;;;;14.90;7.10;;;;;;;8.33;99.98;99630.55;105891;1290;68330;-75
2022/11/10 05:10:37;;;;;;;15.00;7.10;;;;;;;8.31;99.97;99633.67;105834;1293;73817;-75
2022/11/10 05:13:44;;;;;;;14.90;6.90;;;;;;;8.29;100.00;99635.79;105905;1284;58386;-75
2022/11/10 05:16:51;;;;;;;15.20;7.10;;;;;;;8.29;100.00;99642.73;105899;1291;61584;-74
2022/11/10 05:19:58;;;;;;;15.50;7.50;;;;;;;8.27;100.00;99646.36;105899;1285;74291;-75
2022/11/10 05:26:30;;;;;;;12.60;6.30;;;;;;;8.26;100.00;99654.02;105900;1292;71417;-75
2022/11/10 05:29:36;;;;;;;13.10;7.10;;;;;;;8.26;100.00;99656.89;105904;1298;59653;-74
2022/11/10 05:32:43;;;;;;;14.20;6.40;;;;;;;8.26;100.00;99664.86;105894;1291;61763;-75
2022/11/10 05:35:50;;;;;;;15.00;6.60;;;;;;;8.24;99.99;99669.94;105883;1291;73232;-74
2022/11/10 05:38:56;;;;;;;11.80;5.60;;;;;;;8.24;100.00;99672.42;105900;1292;67757;-76
2022/11/10 05:42:04;;;;;;;12.80;6.60;;;;;;;8.22;99.97;99672.59;105898;1283;72362;-75
2022/11/10 05:45:11;;;;;;;13.50;7.40;;;;;;;8.19;99.96;99675.40;105703;1298;202135;-74
2022/11/10 05:48:18;;;;;;;12.60;5.40;;;;;;;8.17;99.94;99679.79;105910;1291;60059;-75
2022/11/10 05:51:24;;;;;;;13.00;6.30;;;;;;;8.15;99.98;99685.42;105880;1291;73072;-75
2022/11/10 05:54:31;;;;;;;14.50;5.80;;;;;;;8.13;99.96;99691.95;105897;1291;68903;-75
2022/11/10 05:57:40;;;;;;;12.30;5.60;;;;;;;8.10;100.00;99695.84;105881;1290;72223;-74
2022/11/10 06:00:47;;;;;;;12.70;6.20;;;;;;;8.08;100.00;99697.96;105892;1291;59770;-74
2022/11/10 06:03:54;;;;;;;14.00;6.10;;;;;;;8.05;100.00;99697.80;105919;1284;58983;-75
2022/11/10 06:07:01;;;;;;;14.20;5.10;;;;;;;8.04;100.00;99710.95;105888;1291;72773;-75
2022/11/10 06:10:08;;;;;;;14.50;6.00;;;;;;;8.02;100.00;99715.30;105891;1290;68717;-73
2022/11/10 06:13:15;;;;;;;11.10;5.10;;;;;;;8.03;100.00;99714.45;105864;1284;71552;-75
2022/11/10 06:16:22;;;;;;;12.30;5.70;;;;;;;8.03;100.00;99721.27;105879;1291;58796;-74
2022/11/10 06:19:29;;;;;;;11.20;4.90;;;;;;;8.05;100.00;99732.65;105910;1282;61221;-74
2022/11/10 06:22:36;;;;;;;11.20;5.30;;;;;;;8.08;100.00;99739.69;106015;1284;73101;-75
2022/11/10 06:25:45;;;;;;;14.30;6.00;;;;;;;8.11;100.00;99749.72;106064;1284;67659;-73
2022/11/10 06:28:52;;;;;;;13.80;5.90;;;;;;;8.13;100.00;99753.09;105996;1275;72736;-74
2022/11/10 06:31:58;;;;;;;15.10;6.10;;;;;;;8.16;99.95;99761.52;106016;1291;57261;-75
2022/11/10 06:35:05;;;;;;;18.00;8.60;;;;;;;8.17;99.89;99772.02;105888;1292;58947;-73
2022/11/10 06:38:12;;;;;;;15.60;7.60;;;;;;;8.22;99.90;99779.53;104417;1292;1002877;-76
2022/11/10 06:41:18;;;;;;;14.70;6.10;;;;;;;8.25;99.73;99781.69;105898;1291;66769;-74
2022/11/10 06:44:30;;;;;;;13.30;5.80;;;;;;;8.33;99.76;99781.37;105900;1284;71473;-73
2022/11/10 06:47:37;;;;;;;15.00;6.30;;;;;;;8.39;99.19;99789.01;105880;1291;58115;-72
2022/11/10 06:50:44;;;;;;;13.90;6.20;;;;;;;8.49;99.02;99791.33;105908;1292;60065;-74
2022/11/10 06:53:50;;;;;;;13.00;5.20;;;;;;;8.58;98.38;99799.52;105901;1284;71778;-74
2022/11/10 06:56:57;;;;;;;12.40;5.50;;;;;;;8.66;97.92;99806.86;105990;1284;66211;-73
2022/11/10 07:00:04;;;;;;;12.90;6.00;;;;;;;8.71;97.69;99809.92;105953;1283;72867;-76
2022/11/10 07:03:14;;;;;;;17.50;7.20;;;;;;;8.74;97.58;99820.65;105938;1291;60641;-72
2022/11/10 07:06:21;;;;;;;12.50;5.30;;;;;;;8.76;97.26;99827.00;105984;1284;60444;-75
2022/11/10 07:09:28;;;;;;;13.00;5.20;;;;;;;8.81;97.41;99824.16;105974;1291;70822;-73
2022/11/10 07:12:34;;;;;;;13.10;5.30;;;;;;;8.86;96.90;99825.77;105959;1290;68159;-75
2022/11/10 07:15:42;;;;;;;13.20;5.20;;;;;;;8.90;96.50;99827.95;105941;1284;73569;-75
2022/11/10 07:18:48;;;;;;;11.50;5.00;;;;;;;8.94;96.32;99835.30;105993;1291;59878;-75
2022/11/10 07:21:55;;;;;;;10.00;3.80;;;;;;;8.96;96.25;99834.23;105985;1291;59056;-75
2022/11/10 07:25:02;;;;;;;9.80;4.20;;;;;;;8.99;96.17;99836.47;105960;1291;74043;-77
2022/11/10 07:28:11;;;;;;;10.80;5.00;;;;;;;9.07;96.09;99840.88;105896;1290;69168;-75
2022/11/10 07:31:18;;;;;;;10.70;4.50;;;;;;;9.16;95.46;99848.84;105838;1284;73714;-76
2022/11/10 07:34:24;;;;;;;11.40;4.40;;;;;;;9.36;95.35;99850.38;105893;1283;58154;-78
2022/11/10 07:37:32;;;;;;;12.20;4.20;;;;;;;9.67;94.10;99842.33;105881;1291;60564;-75
2022/11/10 07:40:39;;;;;;;14.00;5.00;;;;;;;10.04;92.58;99846.50;105894;1298;74326;-76
2022/11/10 07:43:45;;;;;;;10.70;4.20;;;;;;;10.37;91.27;99849.75;105917;1291;68043;-76
2022/11/10 07:46:52;;;;;;;9.70;4.10;;;;;;;10.78;89.94;99852.51;105863;1284;72718;-76
2022/11/10 07:49:59;;;;;;;10.20;3.70;;;;;;;11.12;87.72;99853.13;105899;1285;59101;-78
2022/11/10 07:53:13;;;;;;;10.70;4.00;;;;;;;11.40;85.15;99859.48;105901;1283;60357;-78
2022/11/10 07:56:20;;;;;;;9.80;4.10;;;;;;;11.53;84.39;99856.06;105861;1292;74287;-75
2022/11/10 07:59:27;;;;;;;8.40;3.40;;;;;;;11.47;84.05;99860.48;105962;1291;67879;-79
2022/11/10 08:02:34;;;;;;;8.40;3.80;;;;;;;11.44;83.32;99862.22;105967;1287;72580;-73
2022/11/10 08:05:40;;;;;;;13.30;3.60;;;;;;;11.50;83.80;99861.30;105969;1291;59147;-75
2022/11/10 08:08:47;;;;;;;9.90;3.70;;;;;;;11.68;83.40;99864.43;105977;1291;60626;-78
2022/11/10 08:11:54;;;;;;;9.70;3.00;;;;;;;11.61;82.67;99867.73;105982;1291;70987;-77
2022/11/10 08:15:00;;;;;;;9.20;3.50;;;;;;;11.64;82.62;99871.36;105949;1284;69685;-78
2022/11/10 08:18:20;;;;;;;9.00;3.60;;;;;;;11.59;82.17;99880.95;105974;1290;72739;-79
2022/11/10 08:21:26;;;;;;;9.10;3.40;;;;;;;11.44;82.70;99882.96;105892;1284;59199;-77
2022/11/10 08:24:32;;;;;;;9.80;3.40;;;;;;;11.31;83.06;99889.90;105995;1291;60073;-78
2022/11/10 08:27:39;;;;;;;9.10;3.50;;;;;;;11.26;83.24;99892.79;105977;1289;72991;-77
2022/11/10 08:30:48;;;;;;;10.10;3.70;;;;;;;11.39;83.28;99902.52;105969;1288;68414;-75
2022/11/10 08:33:54;;;;;;;9.40;3.30;;;;;;;11.39;83.04;99907.35;105957;1291;73867;-80
2022/11/10 08:37:01;;;;;;;10.40;3.30;;;;;;;11.26;83.39;99910.39;105966;1292;58257;-80
2022/11/10 08:40:09;;;;;;;10.20;3.80;;;;;;;11.13;83.73;99909.17;105985;1290;58683;-81
2022/11/10 08:43:17;;;;;;;7.70;2.80;;;;;;;11.06;84.55;99921.63;105963;1298;72400;-81
2022/11/10 08:46:24;;;;;;;8.80;2.90;;;;;;;11.08;84.77;99923.75;105957;1290;68121;-81
2022/11/10 08:49:31;;;;;;;10.50;3.10;;;;;;;11.14;84.45;99928.73;105908;1291;72593;-81
2022/11/10 08:52:38;;;;;;;9.00;2.90;;;;;;;11.19;84.25;99932.56;105859;1284;57935;-81
2022/11/10 08:55:45;;;;;;;9.50;3.10;;;;;;;11.29;83.82;99932.23;105979;1290;60372;-80
2022/11/10 08:58:53;;;;;;;7.50;2.70;;;;;;;11.28;83.49;99938.14;105996;1290;72964;-81
2022/11/10 09:01:59;;;;;;;8.10;2.20;;;;;;;11.30;83.51;99941.84;105983;1290;69073;-79
2022/11/10 09:05:07;;;;;;;9.10;2.50;;;;;;;11.36;83.33;99943.29;105958;1291;71433;-79
2022/11/10 09:08:15;;;;;;;8.80;3.00;;;;;;;11.55;83.15;99955.05;105916;1284;59221;-79
2022/11/10 09:11:24;;;;;;;8.30;2.50;;;;;;;11.90;81.90;99959.80;105993;1291;60240;-80
2022/11/10 09:14:32;;;;;;;9.40;2.40;;;;;;;11.92;80.81;99961.02;105989;1292;71683;-81
2022/11/10 09:17:40;;;;;;;10.50;2.80;;;;;;;11.95;80.58;99968.12;106016;1292;68181;-81
2022/11/10 09:20:46;;;;;;;8.70;2.50;;;;;;;12.08;80.56;99975.58;105983;1283;72563;-81
2022/11/10 09:23:53;;;;;;;10.60;2.50;;;;;;;12.28;79.50;99969.55;105964;1291;60196;-80
2022/11/10 09:27:00;;;;;;;9.00;2.90;;;;;;;12.52;78.87;99973.02;105907;1292;60373;-76
2022/11/10 09:30:08;;;;;;;6.10;1.90;;;;;;;12.72;76.83;99977.27;105894;1291;72745;-75
2022/11/10 09:33:22;;;;;;;7.70;2.10;;;;;;;12.82;76.09;99981.91;105903;1291;68153;-75
2022/11/10 09:36:30;;;;;;;7.20;2.00;;;;;;;12.62;76.94;99987.59;105888;1288;72582;-77
2022/11/10 09:39:36;;;;;;;9.80;2.40;;;;;;;12.74;76.59;99987.94;105885;1291;59765;-71
2022/11/10 09:42:46;;;;;;;9.20;2.90;;;;;;;12.74;76.73;99995.81;105904;1291;59014;-74
2022/11/10 09:45:56;;;;;;;8.20;2.20;;;;;;;12.51;77.29;99995.29;105904;1292;72074;-73
2022/11/10 09:49:16;;;;;;;8.50;2.80;;;;;;;12.24;78.45;100001.73;105925;1291;69081;-75
2022/11/10 09:52:28;;;;;;;11.90;3.30;;;;;;;12.03;79.90;100003.56;105925;1282;72587;-76
2022/11/10 09:55:59;;;;;;;10.50;3.00;;;;;;;11.81;80.89;100010.14;105799;1294;59395;-75
2022/11/10 09:59:17;;;;;;;11.20;3.50;;;;;;;11.59;82.13;100019.75;105887;1290;60503;-73
2022/11/10 10:02:50;;;;;;;9.10;2.60;;;;;;;11.62;82.76;100022.30;105953;1285;73142;-72
2022/11/10 10:06:17;;;;;;;10.70;3.10;;;;;;;12.13;81.26;100031.87;105944;1284;68921;-72
2022/11/10 10:09:36;;;;;;;8.30;2.60;;;;;;;12.64;78.65;100026.09;105928;1282;73982;-73
2022/11/10 10:13:26;;;;;;;7.40;2.00;;;;;;;13.31;76.83;100029.59;105901;1292;57387;-77
2022/11/10 10:16:46;;;;;;;7.60;2.60;;;;;;;14.93;69.79;100028.09;105878;1292;60131;-72
2022/11/10 10:20:18;;;;;;;7.50;2.10;;;;;;;14.94;67.42;100025.30;105885;1291;73949;-73
2022/11/10 10:23:35;;;;;;;8.40;2.40;;;;;;;14.35;68.70;100036.71;105926;1291;67853;-72
2022/11/10 10:27:05;;;;;;;6.40;1.50;;;;;;;14.01;70.09;100033.65;105817;1290;72504;-75
2022/11/10 10:30:16;;;;;;;7.00;1.80;;;;;;;13.61;71.02;100033.52;105730;1290;57369;-74
2022/11/10 10:33:23;;;;;;;8.70;2.30;;;;;;;13.58;72.19;100038.08;105862;1291;60807;-75
2022/11/10 10:36:30;;;;;;;7.80;2.10;;;;;;;13.21;73.83;100038.69;105888;1284;72908;-75
2022/11/10 10:39:45;;;;;;;6.10;1.80;;;;;;;12.76;75.49;100043.17;105884;1290;67979;-78
2022/11/10 10:42:52;;;;;;;8.10;1.80;;;;;;;12.38;77.57;100055.14;105862;1287;71408;-75
2022/11/10 10:46:14;;;;;;;7.00;1.90;;;;;;;12.06;79.34;100055.72;105895;1284;58783;-78
2022/11/10 10:49:24;;;;;;;5.50;1.50;;;;;;;11.84;81.33;100054.46;105780;1283;61289;-78
2022/11/10 10:52:35;;;;;;;6.20;1.60;;;;;;;11.53;82.73;100060.55;105830;1284;73008;-76
2022/11/10 10:55:58;;;;;;;7.80;1.80;;;;;;;11.46;83.99;100065.05;105902;1290;67043;-76
2022/11/10 10:59:15;;;;;;;7.00;1.90;;;;;;;11.54;84.42;100065.11;105885;1288;73492;-73
2022/11/10 11:02:31;;;;;;;7.60;3.10;;;;;;;12.01;83.83;100070.66;105884;1291;58118;-73
2022/11/10 11:05:38;;;;;;;7.40;2.40;;;;;;;13.03;79.63;100063.77;105887;1291;60445;-74
2022/11/10 11:09:16;;;;;;;8.50;2.20;;;;;;;13.32;78.32;100075.87;105879;1285;74305;-73
2022/11/10 11:12:31;;;;;;;6.80;1.70;;;;;;;13.16;77.20;100076.89;105882;1291;67934;-73
2022/11/10 11:15:38;;;;;;;7.70;1.60;;;;;;;12.86;77.76;100090.59;105826;1285;72789;-75
2022/11/10 11:18:45;;;;;;;8.30;1.80;;;;;;;12.75;79.21;100088.62;105863;1294;57305;-77
2022/11/10 11:22:10;;;;;;;7.10;1.70;;;;;;;12.64;80.12;100092.08;105938;1284;61126;-77
2022/11/10 11:25:42;;;;;;;7.30;1.50;;;;;;;12.46;81.25;100097.48;105923;1291;74096;-74
2022/11/10 11:29:23;;;;;;;6.70;1.50;;;;;;;12.15;82.58;100106.58;105988;1292;66627;-76
2022/11/10 11:33:03;;;;;;;7.60;1.90;;;;;;;12.33;83.48;100102.90;105938;1291;71305;-75
2022/11/10 11:37:00;;;;;;;8.50;1.90;;;;;;;13.28;80.24;100096.84;105974;1291;60641;-78
2022/11/10 11:40:36;;;;;;;6.60;1.50;;;;;;;13.24;78.14;100108.79;105948;1291;60515;-75
2022/11/10 11:44:23;;;;;;;9.10;1.60;;;;;;;12.96;77.88;100113.91;105950;1298;73333;-74
2022/11/10 11:47:46;;;;;;;9.20;1.90;;;;;;;12.60;78.96;100115.60;105971;1292;68359;-73
2022/11/10 11:51:08;;;;;;;9.90;1.80;;;;;;;12.49;79.89;100118.29;105951;1284;73849;-73
2022/11/10 11:54:31;;;;;;;8.10;1.80;;;;;;;12.32;80.52;100129.15;105859;1282;60708;-73
2022/11/10 11:58:04;;;;;;;8.60;2.10;;;;;;;12.29;81.42;100134.36;105967;1292;60134;-75
2022/11/10 12:01:36;;;;;;;12.40;2.00;;;;;;;12.50;80.37;100129.77;105975;1292;72657;-75
2022/11/10 12:05:08;;;;;;;10.30;1.80;;;;;;;12.24;80.85;100139.03;105951;1282;67893;-76
2022/11/10 12:08:35;;;;;;;9.20;2.10;;;;;;;12.01;81.44;100145.58;105956;1290;71671;-76
2022/11/10 12:12:20;;;;;;;12.10;2.10;;;;;;;12.14;81.52;100144.46;105934;1291;59306;-73
2022/11/10 12:16:01;;;;;;;12.50;2.10;;;;;;;12.67;78.55;100150.45;105959;1291;60339;-74
2022/11/10 12:19:37;;;;;;;11.70;2.40;;;;;;;12.72;77.31;100160.24;105959;1290;73013;-73
2022/11/10 12:23:22;;;;;;;11.70;2.10;;;;;;;12.85;76.22;100160.47;105976;1291;66512;-72
2022/11/10 12:26:46;;;;;;;9.70;1.90;;;;;;;12.55;77.04;100157.86;105967;1292;71423;-71
2022/11/10 12:30:18;;;;;;;11.30;2.70;;;;;;;12.58;77.04;100167.74;105936;1297;59376;-75
2022/11/10 12:33:41;;;;;;;12.70;2.60;;;;;;;12.79;76.36;100166.84;105971;1291;60154;-76
2022/11/10 12:36:49;;;;;;;9.80;2.00;;;;;;;13.23;74.70;100164.10;105961;1290;72959;-75
2022/11/10 12:40:14;;;;;;;13.30;2.20;;;;;;;13.40;72.97;100170.48;105985;1291;68486;-71
2022/11/10 12:44:13;;;;;;;9.70;2.10;;;;;;;13.39;72.81;100180.79;105926;1290;72670;-76
2022/11/10 12:47:28;;;;;;;7.50;1.60;;;;;;;13.67;72.45;100177.77;105943;1290;59029;-72
2022/11/10 12:51:26;;;;;;;9.90;1.90;;;;;;;13.61;72.10;100182.23;105863;1292;57939;-75
2022/11/10 12:54:34;;;;;;;10.10;2.30;;;;;;;13.37;71.90;100199.30;105574;1297;71434;-74
2022/11/10 12:57:43;;;;;;;10.60;2.00;;;;;;;13.26;72.81;100205.02;105470;1288;67707;-74
2022/11/10 13:01:02;;;;;;;11.80;2.50;;;;;;;13.05;72.75;100210.73;105547;1297;72381;-77
2022/11/10 13:04:17;;;;;;;10.00;2.10;;;;;;;12.83;73.24;100210.61;105485;1298;57471;-76
2022/11/10 13:07:24;;;;;;;9.80;2.30;;;;;;;12.65;74.41;100215.73;105521;1305;60245;-74
2022/11/10 13:10:31;;;;;;;10.90;2.70;;;;;;;12.45;75.55;100219.67;105485;1296;73215;-77
2022/11/10 13:13:55;;;;;;;11.70;3.40;;;;;;;12.24;76.38;100228.36;105461;1298;66658;-77
2022/11/10 13:17:05;;;;;;;16.30;3.30;;;;;;;12.09;77.46;100232.20;105322;1297;73003;-79
2022/11/10 13:20:51;;;;;;;9.80;2.40;;;;;;;11.97;77.79;100232.88;105445;1297;59243;-81
2022/11/10 13:24:01;;;;;;;13.10;2.40;;;;;;;11.91;77.63;100238.63;105365;1297;61491;-81
2022/11/10 13:27:32;;;;;;;11.60;2.60;;;;;;;11.89;77.85;100239.70;105446;1296;71032;-77
2022/11/10 13:30:47;;;;;;;10.80;2.10;;;;;;;11.91;78.06;100233.83;105901;1290;66853;-78
2022/11/10 13:34:06;;;;;;;11.70;2.20;;;;;;;11.82;78.05;100246.86;105914;1291;71449;-77
2022/11/10 13:37:28;;;;;;;10.20;2.20;;;;;;;11.70;78.77;100260.17;105917;1290;57459;-75
2022/11/10 13:40:38;;;;;;;12.70;2.40;;;;;;;11.55;79.28;100265.52;105960;1290;61154;-78
2022/11/10 13:43:52;;;;;;;14.50;2.60;;;;;;;11.44;79.88;100273.06;105999;1291;72947;-78
2022/11/10 13:47:07;;;;;;;12.70;2.90;;;;;;;11.30;80.70;100275.41;105982;1290;68670;-77
2022/11/10 13:50:48;;;;;;;12.70;2.90;;;;;;;11.20;81.06;100283.27;105990;1290;72420;-76
2022/11/10 13:54:18;;;;;;;12.10;2.30;;;;;;;11.09;81.66;100285.17;105962;1282;57991;-76
2022/11/10 13:57:41;;;;;;;14.30;3.10;;;;;;;10.92;82.46;100299.97;105947;1291;60240;-77
2022/11/10 14:01:14;;;;;;;11.10;2.40;;;;;;;10.82;82.86;100306.20;105908;1282;71817;-77
2022/11/10 14:04:45;;;;;;;12.20;2.50;;;;;;;10.71;83.61;100311.45;105933;1291;68710;-76
2022/11/10 14:08:02;;;;;;;9.40;2.70;;;;;;;10.61;84.48;100315.91;105955;1297;74000;-77
2022/11/10 14:11:23;;;;;;;14.00;3.20;;;;;;;10.51;84.70;100312.70;105966;1292;59222;-78
2022/11/10 14:15:14;;;;;;;10.10;2.30;;;;;;;10.45;84.85;100316.89;105842;1292;58904;-78
2022/11/10 14:18:48;;;;;;;10.10;2.50;;;;;;;10.33;85.46;100319.71;105293;1300;74101;-77
2022/11/10 14:22:01;;;;;;;13.60;2.60;;;;;;;10.21;85.50;100329.75;105225;1299;66537;-77
2022/11/10 14:25:41;;;;;;;11.10;2.60;;;;;;;10.12;85.79;100333.05;105345;1298;71492;-77
2022/11/10 14:28:48;;;;;;;9.60;2.70;;;;;;;10.02;85.97;100342.83;105383;1296;58054;-75
2022/11/10 14:32:02;;;;;;;14.00;3.60;;;;;;;9.92;86.66;100347.02;105378;1298;61171;-76
2022/11/10 14:35:21;;;;;;;14.20;3.40;;;;;;;9.84;87.20;100350.80;105311;1300;73873;-77
2022/11/10 14:38:36;;;;;;;14.00;3.80;;;;;;;9.77;87.40;100353.83;105360;1297;67769;-78
2022/11/10 14:41:47;;;;;;;12.60;3.70;;;;;;;9.69;87.72;100366.89;105286;1276;71277;-78
2022/11/10 14:45:20;;;;;;;13.00;3.30;;;;;;;9.61;88.24;100373.65;105310;1298;57683;-78
2022/11/10 14:48:32;;;;;;;12.60;2.80;;;;;;;9.53;88.93;100388.90;105411;1300;60169;-78
2022/11/10 14:51:39;;;;;;;11.60;2.80;;;;;;;9.47;88.65;100394.80;105226;1284;73329;-77
2022/11/10 14:54:46;;;;;;;12.60;3.00;;;;;;;9.41;89.24;100403.94;105850;1296;66784;-74
2022/11/10 14:58:13;;;;;;;14.40;5.20;;;;;;;9.36;89.74;100407.77;105943;1295;72525;-74
2022/11/10 15:01:33;;;;;;;14.50;4.70;;;;;;;9.31;89.77;100403.52;105907;1291;59336;-80
2022/11/10 15:04:42;;;;;;;20.30;7.30;;;;;;;9.26;90.86;100408.30;105902;1292;61480;-81